createdAt,value
2023-05-13T00:01:52.388Z,5.28
2023-05-13T00:04:19.224Z,5.31
2023-05-13T00:06:45.956Z,5.38
2023-05-13T00:09:12.938Z,5.43
2023-05-13T00:11:39.845Z,5.48
2023-05-13T00:14:09.791Z,5.52
2023-05-13T00:16:36.680Z,5.55
2023-05-13T00:19:03.776Z,5.58
2023-05-13T00:21:30.660Z,5.62
2023-05-13T00:23:57.667Z,5.65
2023-05-13T00:26:24.615Z,5.71
2023-05-13T00:28:51.452Z,5.77
2023-05-13T00:31:18.478Z,5.82
2023-05-13T00:33:45.359Z,5.86
2023-05-13T00:36:12.535Z,5.90
2023-05-13T00:38:39.855Z,5.95
2023-05-13T00:41:07.108Z,6.00
2023-05-13T00:43:33.970Z,6.02
2023-05-13T00:46:01.008Z,6.03
2023-05-13T00:48:27.930Z,6.03
2023-05-13T00:50:54.747Z,6.02
2023-05-13T00:53:21.695Z,5.99
2023-05-13T00:55:48.590Z,5.98
2023-05-13T00:58:17.434Z,6.00
2023-05-13T01:01:11.363Z,6.05
2023-05-13T01:03:51.217Z,6.10
2023-05-13T01:06:49.117Z,6.14
2023-05-13T01:09:31.186Z,6.17
2023-05-13T01:11:57.979Z,6.17
2023-05-13T01:14:32.260Z,6.16
2023-05-13T01:17:05.540Z,6.13
2023-05-13T01:19:42.618Z,6.09
2023-05-13T01:22:09.483Z,6.05
2023-05-13T01:24:36.464Z,6.04
2023-05-13T01:27:03.847Z,6.03
2023-05-13T01:29:30.784Z,6.02
2023-05-13T01:31:57.621Z,5.95
2023-05-13T01:34:24.461Z,5.88
2023-05-13T01:36:51.208Z,5.82
2023-05-13T01:39:19.697Z,5.79
2023-05-13T01:41:47.090Z,5.78
2023-05-13T01:44:14.114Z,5.78
2023-05-13T01:46:42.972Z,5.81
2023-05-13T01:49:10.289Z,5.83
2023-05-13T01:51:38.019Z,5.86
2023-05-13T01:54:06.021Z,5.87
2023-05-13T01:56:33.356Z,5.88
2023-05-13T01:59:00.219Z,5.85
2023-05-13T02:01:26.957Z,5.81
2023-05-13T02:03:54.025Z,5.74
2023-05-13T02:06:21.446Z,5.62
2023-05-13T02:08:49.091Z,5.50
2023-05-13T02:11:15.945Z,5.41
2023-05-13T02:13:42.772Z,5.32
2023-05-13T02:16:11.102Z,5.25
2023-05-13T02:18:38.081Z,5.19
2023-05-13T02:21:05.681Z,5.13
2023-05-13T02:23:33.336Z,5.08
2023-05-13T02:26:01.835Z,5.02
2023-05-13T02:28:29.483Z,4.98
2023-05-13T02:30:56.227Z,4.94
2023-05-13T02:33:23.383Z,4.93
2023-05-13T02:35:51.352Z,4.95
2023-05-13T02:38:18.427Z,4.99
2023-05-13T02:40:45.264Z,5.04
2023-05-13T02:43:12.245Z,5.12
2023-05-13T02:45:44.521Z,5.20
2023-05-13T02:48:11.424Z,5.27
2023-05-13T02:50:40.641Z,5.36
2023-05-13T02:53:09.003Z,5.45
2023-05-13T02:55:37.085Z,5.53
2023-05-13T02:58:04.752Z,5.60
2023-05-13T03:00:32.116Z,5.68
2023-05-13T03:02:59.196Z,5.76
2023-05-13T03:05:27.835Z,5.84
2023-05-13T03:07:58.071Z,5.91
2023-05-13T03:10:26.046Z,5.99
2023-05-13T03:12:52.799Z,6.05
2023-05-13T03:15:19.726Z,6.12
2023-05-13T03:17:46.590Z,6.17
2023-05-13T03:20:13.506Z,6.24
2023-05-13T03:22:40.320Z,6.31
2023-05-13T03:25:07.763Z,6.39
2023-05-13T03:27:43.354Z,6.47
2023-05-13T03:30:10.912Z,6.54
2023-05-13T03:32:44.907Z,6.62
2023-05-13T03:35:12.355Z,6.68
2023-05-13T03:37:39.721Z,6.69
2023-05-13T03:40:08.068Z,6.66
2023-05-13T03:42:35.382Z,6.66
2023-05-13T03:45:03.042Z,6.69
2023-05-13T03:47:32.343Z,6.73
2023-05-13T03:50:01.172Z,6.76
2023-05-13T03:52:30.985Z,6.81
2023-05-13T03:54:58.399Z,6.84
2023-05-13T03:57:25.662Z,6.85
2023-05-13T03:59:52.478Z,6.83
2023-05-13T04:02:21.751Z,6.84
2023-05-13T04:04:48.802Z,6.84
2023-05-13T04:07:16.082Z,6.85
2023-05-13T04:09:42.965Z,6.86
2023-05-13T04:12:09.814Z,6.86
2023-05-13T04:14:36.815Z,6.87
2023-05-13T04:17:03.661Z,6.91
2023-05-13T04:19:30.509Z,6.92
2023-05-13T04:21:57.279Z,6.96
2023-05-13T04:24:24.136Z,7.06
2023-05-13T04:26:50.980Z,7.17
2023-05-13T04:29:18.559Z,7.28
2023-05-13T04:31:46.148Z,7.36
2023-05-13T04:34:13.076Z,7.39
2023-05-13T04:36:40.645Z,7.45
2023-05-13T04:39:08.923Z,7.52
2023-05-13T04:41:35.965Z,7.56
2023-05-13T04:44:03.313Z,7.61
2023-05-13T04:46:30.595Z,7.68
2023-05-13T04:48:57.483Z,7.74
2023-05-13T04:51:25.452Z,7.80
2023-05-13T04:53:52.729Z,7.93
2023-05-13T04:56:20.792Z,8.08
2023-05-13T04:58:47.636Z,8.17
2023-05-13T05:01:15.525Z,8.28
2023-05-13T05:03:42.695Z,8.41
2023-05-13T05:06:09.829Z,8.48
2023-05-13T05:08:36.965Z,8.54
2023-05-13T05:11:03.874Z,8.62
2023-05-13T05:13:32.796Z,8.73
2023-05-13T05:15:59.518Z,8.85
2023-05-13T05:18:26.533Z,8.96
2023-05-13T05:20:54.461Z,9.06
2023-05-13T05:23:23.790Z,9.17
2023-05-13T05:26:10.467Z,9.30
2023-05-13T05:28:44.968Z,9.47
2023-05-13T05:31:12.965Z,9.61
2023-05-13T05:33:40.511Z,9.73
2023-05-13T05:36:08.005Z,9.85
2023-05-13T05:38:35.431Z,9.97
2023-05-13T05:41:03.200Z,10.09
2023-05-13T05:43:30.666Z,10.21
2023-05-13T05:45:57.615Z,10.37
2023-05-13T05:48:25.629Z,10.53
2023-05-13T05:50:52.622Z,10.71
2023-05-13T05:53:26.353Z,10.95
2023-05-13T05:55:53.609Z,11.16
2023-05-13T05:58:20.960Z,11.34
2023-05-13T06:00:47.902Z,11.53
2023-05-13T06:03:14.910Z,11.72
2023-05-13T06:05:42.518Z,11.87
2023-05-13T06:08:09.442Z,12.03
2023-05-13T06:10:36.307Z,12.24
2023-05-13T06:13:03.538Z,12.48
2023-05-13T06:15:30.918Z,12.73
2023-05-13T06:17:57.902Z,12.95
2023-05-13T06:20:25.315Z,13.15
2023-05-13T06:22:52.068Z,13.36
2023-05-13T06:25:18.914Z,13.55
2023-05-13T06:27:45.644Z,13.74
2023-05-13T06:30:12.907Z,13.94
2023-05-13T06:32:50.361Z,14.14
2023-05-13T06:35:27.425Z,14.34
2023-05-13T06:37:54.178Z,14.49
2023-05-13T06:40:21.332Z,14.63
2023-05-13T06:42:48.384Z,14.75
2023-05-13T06:45:23.503Z,14.85
2023-05-13T06:47:51.492Z,14.91
2023-05-13T06:50:18.725Z,15.00
2023-05-13T06:52:46.852Z,15.09
2023-05-13T06:55:13.722Z,15.17
2023-05-13T06:57:43.241Z,15.18
2023-05-13T07:00:11.077Z,15.22
2023-05-13T07:02:38.059Z,15.32
2023-05-13T07:05:05.658Z,15.46
2023-05-13T07:07:32.541Z,15.59
2023-05-13T07:09:59.331Z,15.65
2023-05-13T07:12:26.227Z,15.71
2023-05-13T07:14:53.035Z,15.81
2023-05-13T07:17:19.921Z,15.91
2023-05-13T07:19:47.623Z,16.04
2023-05-13T07:22:14.479Z,16.19
2023-05-13T07:24:41.878Z,16.36
2023-05-13T07:27:08.741Z,16.49
2023-05-13T07:29:35.522Z,16.63
2023-05-13T07:32:06.017Z,16.79
2023-05-13T07:34:32.785Z,16.97
2023-05-13T07:36:59.863Z,17.11
2023-05-13T07:39:27.297Z,17.26
2023-05-13T07:41:54.435Z,17.37
2023-05-13T07:44:21.736Z,17.44
2023-05-13T07:46:49.275Z,17.48
2023-05-13T07:49:16.271Z,17.50
2023-05-13T07:51:43.111Z,17.47
2023-05-13T07:54:10.464Z,17.41
2023-05-13T07:56:38.304Z,17.40
2023-05-13T07:59:05.179Z,17.45
2023-05-13T08:01:32.097Z,17.50
2023-05-13T08:03:59.060Z,17.56
2023-05-13T08:07:13.641Z,17.65
2023-05-13T08:09:40.595Z,17.64
2023-05-13T08:12:08.014Z,17.67
2023-05-13T08:14:34.770Z,17.74
2023-05-13T08:17:02.175Z,17.77
2023-05-13T08:19:28.907Z,17.75
2023-05-13T08:21:55.705Z,17.72
2023-05-13T08:24:22.628Z,17.70
2023-05-13T08:26:49.451Z,17.68
2023-05-13T08:29:16.285Z,17.67
2023-05-13T08:31:43.324Z,17.63
2023-05-13T08:34:10.201Z,17.58
2023-05-13T08:36:37.352Z,17.56
2023-05-13T08:39:04.219Z,17.51
2023-05-13T08:41:32.188Z,17.49
2023-05-13T08:44:00.159Z,17.56
2023-05-13T08:46:30.091Z,17.69
2023-05-13T08:48:57.130Z,17.81
2023-05-13T08:51:24.040Z,17.90
2023-05-13T08:53:51.780Z,17.97
2023-05-13T08:56:18.506Z,18.08
2023-05-13T08:58:46.054Z,18.20
2023-05-13T09:01:13.167Z,18.30
2023-05-13T09:03:43.813Z,18.38
2023-05-13T09:06:10.545Z,18.49
2023-05-13T09:08:37.411Z,18.58
2023-05-13T09:11:04.184Z,18.66
2023-05-13T09:13:31.034Z,18.74
2023-05-13T09:15:57.998Z,18.82
2023-05-13T09:18:30.207Z,18.89
2023-05-13T09:20:57.211Z,18.97
2023-05-13T09:23:24.213Z,19.06
2023-05-13T09:25:50.932Z,19.20
2023-05-13T09:28:17.675Z,19.32
2023-05-13T09:30:46.771Z,19.40
2023-05-13T09:33:15.280Z,19.48
2023-05-13T09:35:52.960Z,19.47
2023-05-13T09:38:27.688Z,19.40
2023-05-13T09:40:56.199Z,19.39
2023-05-13T09:43:24.274Z,19.48
2023-05-13T09:45:54.890Z,19.54
2023-05-13T09:48:25.788Z,19.55
2023-05-13T09:50:53.631Z,19.50
2023-05-13T09:53:21.259Z,19.48
2023-05-13T09:55:48.659Z,19.55
2023-05-13T10:01:11.030Z,19.77
2023-05-13T10:03:38.117Z,19.81
2023-05-13T10:06:05.173Z,19.82
2023-05-13T10:08:32.274Z,19.84
2023-05-13T10:10:59.269Z,19.87
2023-05-13T10:13:27.820Z,19.90
2023-05-13T10:15:55.315Z,19.93
2023-05-13T10:18:23.952Z,20.00
2023-05-13T10:20:53.932Z,20.09
2023-05-13T10:23:24.840Z,20.12
2023-05-13T10:25:52.387Z,20.10
2023-05-13T10:28:19.322Z,20.06
2023-05-13T10:30:46.277Z,20.03
2023-05-13T10:33:13.125Z,20.09
2023-05-13T10:35:43.057Z,20.10
2023-05-13T10:38:25.723Z,20.09
2023-05-13T10:41:14.455Z,20.18
2023-05-13T10:43:41.478Z,20.31
2023-05-13T10:46:11.499Z,20.40
2023-05-13T10:48:44.555Z,20.49
2023-05-13T10:51:14.141Z,20.64
2023-05-13T10:53:47.936Z,20.73
2023-05-13T10:56:15.129Z,20.66
2023-05-13T10:58:42.103Z,20.57
2023-05-13T11:01:12.617Z,20.54
2023-05-13T11:03:39.925Z,20.41
2023-05-13T11:06:24.043Z,20.31
2023-05-13T11:08:53.581Z,20.30
2023-05-13T11:11:22.563Z,20.33
2023-05-13T11:14:02.678Z,20.34
2023-05-13T11:16:29.573Z,20.29
2023-05-13T11:18:56.599Z,20.23
2023-05-13T11:21:35.660Z,20.31
2023-05-13T11:24:04.146Z,20.39
2023-05-13T11:26:56.435Z,20.43
2023-05-13T11:29:34.456Z,20.49
2023-05-13T11:32:03.530Z,20.52
2023-05-13T11:34:30.750Z,20.56
2023-05-13T11:37:08.687Z,20.54
2023-05-13T11:39:36.127Z,20.53
2023-05-13T11:42:10.958Z,20.55
2023-05-13T11:44:45.301Z,20.52
2023-05-13T11:47:12.097Z,20.52
2023-05-13T11:49:46.429Z,20.50
2023-05-13T11:52:18.697Z,20.48
2023-05-13T11:54:50.066Z,20.45
2023-05-13T11:57:23.872Z,20.38
2023-05-13T12:00:06.861Z,20.30
2023-05-13T12:02:35.462Z,20.17
2023-05-13T12:05:06.126Z,20.13
2023-05-13T12:07:33.183Z,20.18
2023-05-13T12:10:00.991Z,20.25
2023-05-13T12:12:28.840Z,20.23
2023-05-13T12:14:56.283Z,20.28
2023-05-13T12:17:23.452Z,20.35
2023-05-13T12:20:10.983Z,20.42
2023-05-13T12:22:49.246Z,20.48
2023-05-13T12:25:33.111Z,20.48
2023-05-13T12:27:59.993Z,20.46
2023-05-13T12:30:31.897Z,20.46
2023-05-13T12:32:59.173Z,20.46
2023-05-13T12:35:26.362Z,20.46
2023-05-13T12:38:03.982Z,20.47
2023-05-13T12:40:31.431Z,20.46
2023-05-13T12:43:01.628Z,20.43
2023-05-13T12:45:32.696Z,20.38
2023-05-13T12:48:00.089Z,20.42
2023-05-13T12:50:27.128Z,20.51
2023-05-13T12:52:53.941Z,20.56
2023-05-13T12:55:21.210Z,20.60
2023-05-13T12:58:14.723Z,20.60
2023-05-13T13:00:41.564Z,20.51
2023-05-13T13:03:08.722Z,20.43
2023-05-13T13:05:35.908Z,20.38
2023-05-13T13:08:05.401Z,20.34
2023-05-13T13:10:32.530Z,20.28
2023-05-13T13:12:59.345Z,20.23
2023-05-13T13:15:26.427Z,20.19
2023-05-13T13:17:53.369Z,20.16
2023-05-13T13:20:20.536Z,20.19
2023-05-13T13:22:47.258Z,20.27
2023-05-13T13:25:14.115Z,20.34
2023-05-13T13:27:40.892Z,20.40
2023-05-13T13:30:08.250Z,20.44
2023-05-13T13:32:35.937Z,20.43
2023-05-13T13:35:05.667Z,20.42
2023-05-13T13:37:32.587Z,20.45
2023-05-13T13:39:59.395Z,20.48
2023-05-13T13:42:40.294Z,20.47
2023-05-13T13:45:11.338Z,20.42
2023-05-13T13:47:38.550Z,20.37
2023-05-13T13:50:06.417Z,20.36
2023-05-13T13:52:33.342Z,20.31
2023-05-13T13:55:00.619Z,20.26
2023-05-13T13:57:27.537Z,20.28
2023-05-13T13:59:54.325Z,20.31
2023-05-13T14:02:21.140Z,20.37
2023-05-13T14:04:47.954Z,20.43
2023-05-13T14:07:15.534Z,20.48
2023-05-13T14:09:42.381Z,20.54
2023-05-13T14:12:18.775Z,20.59
2023-05-13T14:14:46.840Z,20.57
2023-05-13T14:17:14.506Z,20.53
2023-05-13T14:26:55.219Z,20.08
2023-05-13T14:29:23.272Z,19.95
2023-05-13T14:31:50.142Z,19.87
2023-05-13T14:34:16.918Z,19.81
2023-05-13T14:36:43.707Z,19.77
2023-05-13T14:39:10.937Z,19.74
2023-05-13T14:41:37.833Z,19.71
2023-05-13T14:44:04.887Z,19.72
2023-05-13T14:46:33.949Z,19.74
2023-05-13T14:49:00.776Z,19.77
2023-05-13T14:51:27.809Z,19.80
2023-05-13T14:53:54.603Z,19.81
2023-05-13T14:56:21.329Z,19.81
2023-05-13T14:58:48.112Z,19.79
2023-05-13T15:01:14.922Z,19.77
2023-05-13T15:03:42.204Z,19.79
2023-05-13T15:06:09.872Z,19.83
2023-05-13T15:08:37.845Z,19.83
2023-05-13T15:11:04.889Z,19.81
2023-05-13T15:13:36.953Z,19.78
2023-05-13T15:16:04.201Z,19.78
2023-05-13T15:18:31.465Z,19.78
2023-05-13T15:20:58.352Z,19.78
2023-05-13T15:23:25.289Z,19.74
2023-05-13T15:25:52.107Z,19.70
2023-05-13T15:28:18.966Z,19.68
2023-05-13T15:30:45.862Z,19.67
2023-05-13T15:33:12.960Z,19.64
2023-05-13T15:35:52.492Z,19.57
2023-05-13T15:38:23.850Z,19.54
2023-05-13T15:40:51.089Z,19.56
2023-05-13T15:43:18.127Z,19.59
2023-05-13T15:45:45.159Z,19.61
2023-05-13T15:48:12.031Z,19.62
2023-05-13T15:50:39.386Z,19.62
2023-05-13T15:53:06.419Z,19.61
2023-05-13T15:55:34.103Z,19.57
2023-05-13T15:58:00.934Z,19.54
2023-05-13T16:00:27.958Z,19.52
2023-05-13T16:02:54.975Z,19.52
2023-05-13T16:05:21.866Z,19.53
2023-05-13T16:07:48.940Z,19.53
2023-05-13T16:10:15.890Z,19.51
2023-05-13T16:12:43.040Z,19.44
2023-05-13T16:15:11.385Z,19.36
2023-05-13T16:17:38.211Z,19.31
2023-05-13T16:20:06.005Z,19.25
2023-05-13T16:22:34.801Z,19.21
2023-05-13T16:25:03.310Z,19.13
2023-05-13T16:27:30.285Z,19.02
2023-05-13T16:29:58.077Z,18.90
2023-05-13T16:32:25.064Z,18.76
2023-05-13T16:34:52.088Z,18.63
2023-05-13T16:37:18.908Z,18.51
2023-05-13T16:39:45.841Z,18.37
2023-05-13T16:42:12.589Z,18.26
2023-05-13T16:44:39.416Z,18.18
2023-05-13T16:47:07.225Z,18.08
2023-05-13T16:49:35.847Z,17.98
2023-05-13T16:52:06.171Z,17.87
2023-05-13T16:54:33.296Z,17.79
2023-05-13T16:57:00.438Z,17.74
2023-05-13T16:59:27.491Z,17.69
2023-05-13T17:01:54.722Z,17.64
2023-05-13T17:04:21.597Z,17.60
2023-05-13T17:06:48.338Z,17.58
2023-05-13T17:09:16.254Z,17.56
2023-05-13T17:11:43.212Z,17.54
2023-05-13T17:14:10.001Z,17.49
2023-05-13T17:16:37.126Z,17.42
2023-05-13T17:19:04.077Z,17.34
2023-05-13T17:21:30.848Z,17.26
2023-05-13T17:23:57.785Z,17.16
2023-05-13T17:26:24.902Z,17.06
2023-05-13T17:28:52.110Z,16.94
2023-05-13T17:31:18.868Z,16.82
2023-05-13T17:33:46.396Z,16.70
2023-05-13T17:36:13.132Z,16.57
2023-05-13T17:38:39.980Z,16.45
2023-05-13T17:41:06.707Z,16.33
2023-05-13T17:43:33.480Z,16.20
2023-05-13T17:46:00.232Z,16.08
2023-05-13T17:48:27.105Z,15.96
2023-05-13T17:50:54.111Z,15.83
2023-05-13T17:53:20.977Z,15.70
2023-05-13T17:55:48.569Z,15.57
2023-05-13T18:01:21.730Z,15.32
2023-05-13T18:03:48.830Z,15.17
2023-05-13T18:06:16.163Z,15.06
2023-05-13T18:08:43.070Z,14.96
2023-05-13T18:11:09.993Z,14.85
2023-05-13T18:13:36.775Z,14.74
2023-05-13T18:16:06.338Z,14.64
2023-05-13T18:18:33.291Z,14.53
2023-05-13T18:21:00.540Z,14.44
2023-05-13T18:23:27.292Z,14.37
2023-05-13T18:25:56.184Z,14.28
2023-05-13T18:28:23.546Z,14.20
2023-05-13T18:30:50.606Z,14.12
2023-05-13T18:33:20.140Z,14.05
2023-05-13T18:35:47.077Z,13.97
2023-05-13T18:38:13.912Z,13.89
2023-05-13T18:40:40.888Z,13.82
2023-05-13T18:43:07.782Z,13.76
2023-05-13T18:45:34.769Z,13.69
2023-05-13T18:48:01.717Z,13.63
2023-05-13T18:50:28.529Z,13.56
2023-05-13T18:52:55.380Z,13.51
2023-05-13T18:55:22.222Z,13.45
2023-05-13T18:57:50.243Z,13.38
2023-05-13T19:00:17.909Z,13.31
2023-05-13T19:02:44.943Z,13.25
2023-05-13T19:05:12.353Z,13.18
2023-05-13T19:07:39.360Z,13.13
2023-05-13T19:10:08.764Z,13.08
2023-05-13T19:12:35.520Z,13.02
2023-05-13T19:15:02.791Z,12.97
2023-05-13T19:17:30.590Z,12.92
2023-05-13T19:20:00.261Z,12.86
2023-05-13T19:22:27.553Z,12.81
2023-05-13T19:24:54.403Z,12.75
2023-05-13T19:27:22.225Z,12.70
2023-05-13T19:29:49.473Z,12.63
2023-05-13T19:32:16.742Z,12.55
2023-05-13T19:34:44.484Z,12.47
2023-05-13T19:37:11.510Z,12.38
2023-05-13T19:39:38.281Z,12.31
2023-05-13T19:42:05.364Z,12.24
2023-05-13T19:44:32.475Z,12.17
2023-05-13T19:46:59.607Z,12.09
2023-05-13T19:49:26.620Z,12.02
2023-05-13T19:51:56.127Z,11.94
2023-05-13T19:54:23.305Z,11.86
2023-05-13T19:56:50.160Z,11.80
2023-05-13T19:59:16.969Z,11.74
2023-05-13T20:01:43.774Z,11.66
2023-05-13T20:04:10.651Z,11.58
2023-05-13T20:06:37.776Z,11.52
2023-05-13T20:09:04.786Z,11.45
2023-05-13T20:11:32.136Z,11.37
2023-05-13T20:13:59.669Z,11.29
2023-05-13T20:16:27.270Z,11.24
2023-05-13T20:18:54.278Z,11.18
2023-05-13T20:21:21.268Z,11.13
2023-05-13T20:24:49.391Z,11.08
2023-05-13T20:27:16.673Z,10.96
2023-05-13T20:29:44.750Z,10.86
2023-05-13T20:32:11.831Z,10.77
2023-05-13T20:34:38.866Z,10.70
2023-05-13T20:37:06.009Z,10.64
2023-05-13T20:39:32.946Z,10.57
2023-05-13T20:42:00.001Z,10.52
2023-05-13T20:44:27.479Z,10.46
2023-05-13T20:46:54.305Z,10.39
2023-05-13T20:49:21.481Z,10.32
2023-05-13T20:51:48.785Z,10.25
2023-05-13T20:54:15.981Z,10.17
2023-05-13T20:56:42.780Z,10.12
2023-05-13T20:59:09.958Z,10.07
2023-05-13T21:01:37.027Z,10.03
2023-05-13T21:04:06.169Z,9.99
2023-05-13T21:06:33.309Z,9.95
2023-05-13T21:09:00.196Z,9.93
2023-05-13T21:11:27.359Z,9.89
2023-05-13T21:13:54.160Z,9.85
2023-05-13T21:16:21.001Z,9.81
2023-05-13T21:18:48.030Z,9.77
2023-05-13T21:21:14.974Z,9.68
2023-05-13T21:23:44.060Z,9.58
2023-05-13T21:26:10.842Z,9.51
2023-05-13T21:28:37.754Z,9.45
2023-05-13T21:31:04.670Z,9.43
2023-05-13T21:33:33.123Z,9.41
2023-05-13T21:35:59.934Z,9.39
2023-05-13T21:38:27.071Z,9.37
2023-05-13T21:40:53.924Z,9.35
2023-05-13T21:43:20.786Z,9.30
2023-05-13T21:45:48.212Z,9.26
2023-05-13T21:48:15.363Z,9.21
2023-05-13T21:50:42.304Z,9.16
2023-05-13T21:53:09.135Z,9.12
2023-05-13T21:55:36.039Z,9.11
2023-05-13T21:58:03.224Z,9.09
2023-05-13T22:00:30.388Z,9.07
2023-05-13T22:02:57.312Z,9.04
2023-05-13T22:05:24.259Z,9.00
2023-05-13T22:07:51.035Z,8.96
2023-05-13T22:10:17.934Z,8.91
2023-05-13T22:12:44.715Z,8.83
2023-05-13T22:15:12.449Z,8.68
2023-05-13T22:17:39.381Z,8.57
2023-05-13T22:20:07.388Z,8.48
2023-05-13T22:22:34.223Z,8.42
2023-05-13T22:25:01.200Z,8.32
2023-05-13T22:27:28.034Z,8.24
2023-05-13T22:29:54.871Z,8.15
2023-05-13T22:32:21.701Z,8.08
2023-05-13T22:34:48.550Z,8.05
2023-05-13T22:37:15.795Z,8.02
2023-05-13T22:39:42.575Z,8.02
2023-05-13T22:42:09.483Z,8.00
2023-05-13T22:44:36.233Z,8.00
2023-05-13T22:47:02.968Z,8.01
2023-05-13T22:49:29.707Z,7.99
2023-05-13T22:51:56.458Z,7.96
2023-05-13T22:54:24.010Z,7.92
2023-05-13T22:56:50.866Z,7.86
2023-05-13T22:59:17.692Z,7.82
2023-05-13T23:01:44.598Z,7.78
2023-05-13T23:04:11.756Z,7.74
2023-05-13T23:06:38.721Z,7.71
2023-05-13T23:09:05.971Z,7.70
2023-05-13T23:11:32.733Z,7.69
2023-05-13T23:13:59.578Z,7.68
2023-05-13T23:16:26.447Z,7.67
2023-05-13T23:18:55.244Z,7.64
2023-05-13T23:21:22.248Z,7.62
2023-05-13T23:23:50.329Z,7.61
2023-05-13T23:26:17.173Z,7.60
2023-05-13T23:28:43.918Z,7.57
2023-05-13T23:31:10.877Z,7.50
2023-05-13T23:33:37.686Z,7.44
2023-05-13T23:36:05.051Z,7.37
2023-05-13T23:38:31.779Z,7.30
2023-05-13T23:40:58.545Z,7.23
2023-05-13T23:43:25.488Z,7.19
2023-05-13T23:45:52.387Z,7.17
2023-05-13T23:48:19.372Z,7.15
2023-05-13T23:50:46.094Z,7.15
2023-05-13T23:53:12.857Z,7.14
2023-05-13T23:55:39.597Z,7.13
2023-05-13T23:58:06.358Z,7.13
